Latest Weather Observations for Perth

IDW60901

Issued at 5:41 pm WST Sunday 26 April 2015 (issued every 10 minutes, with the page automatically refreshed every 10 minutes)

About weather observations | Map of Perth area stations | Latest observations for Perth area | Other Formats
Station Details ID: 009225 Name: PERTH METRO Lat: -31.92 Lon: 115.87 Height: 24.9 m
Data from the previous 72 hours. | See also: Recent months at Perth
Date/Time
WST
Tmp

°C
App
Tmp
°C
Dew
Point
°C
Rel
Hum
%
Delta-T

°C
Wind Press
QNH
hPa
Press
MSL
hPa
Rain
since
9 am
mm
Dir
 
Spd
km/h
Gust
km/h
Spd
kts
Gust
kts
26/05:30pm 21.9 18.4 3.6 30 8.8 ENE 11 24 6 13 1023.0 1022.9 0.0
26/05:00pm 22.8 19.1 4.3 30 9.0 ENE 13 24 7 13 1022.8 1022.7 0.0
26/04:30pm 23.8 20.6 5.2 30 9.4 E 11 20 6 11 1022.7 1022.6 0.0
26/04:00pm 24.1 20.8 4.5 28 9.7 E 11 19 6 10 1022.6 1022.5 0.0
26/03:30pm 24.3 20.6 4.6 28 9.8 ENE 13 20 7 11 1022.6 1022.5 0.0
26/03:00pm 24.6 21.5 5.4 29 9.7 E 11 19 6 10 1022.5 1022.4 0.0
26/02:30pm 24.6 21.9 5.4 29 9.7 ENE 9 17 5 9 1022.6 1022.5 0.0
26/02:00pm 24.0 20.6 5.8 31 9.2 ENE 13 20 7 11 1022.7 1022.6 0.0
26/01:30pm 24.1 21.6 6.4 32 9.1 ENE 9 17 5 9 1023.0 1022.9 0.0
26/01:00pm 22.9 19.5 5.8 33 8.6 NE 13 24 7 13 1023.4 1023.3 0.0
26/12:30pm 22.3 18.9 5.7 34 8.3 E 13 28 7 15 1023.8 1023.7 0.0
26/12:00pm 22.0 17.4 5.8 35 8.1 NE 19 30 10 16 1024.6 1024.5 0.0
26/11:30am 21.8 18.4 6.1 36 7.9 ENE 13 20 7 11 1025.0 1024.9 0.0
26/11:00am 21.2 18.0 6.7 39 7.3 ENE 13 26 7 14 1025.3 1025.2 0.0
26/10:30am 20.2 16.5 6.2 40 7.0 NE 15 24 8 13 1025.6 1025.5 0.0
26/10:00am 19.9 17.1 7.0 43 6.5 ENE 11 22 6 12 1025.8 1025.7 0.0
26/09:30am 18.1 15.2 6.6 47 5.7 E 11 26 6 14 1026.0 1025.9 0.0
26/09:00am 17.0 14.5 6.5 50 5.1 E 9 19 5 10 1026.2 1026.1 0.0
26/08:30am 15.5 13.4 6.8 56 4.3 E 7 13 4 7 1026.3 1026.2 0.0
26/08:00am 14.1 11.6 6.5 60 3.6 E 9 17 5 9 1026.1 1026.0 0.0
26/07:30am 12.4 9.4 5.8 64 3.1 E 11 20 6 11 1025.7 1025.6 0.0
26/07:00am 12.2 9.1 5.6 64 3.1 E 11 24 6 13 1025.4 1025.3 0.0
26/06:30am 12.1 9.0 5.5 64 3.1 E 11 20 6 11 1025.2 1025.1 0.0
26/06:00am 12.2 9.1 5.4 63 3.1 E 11 19 6 10 1025.0 1024.9 0.0
26/05:30am 11.6 9.3 5.5 66 2.8 ENE 7 13 4 7 1024.9 1024.8 0.0
26/05:00am 11.7 9.6 5.6 66 2.8 ENE 6 9 3 5 1024.8 1024.7 0.0
26/04:30am 11.6 9.4 5.5 66 2.8 ENE 6 9 3 5 1024.8 1024.7 0.0
26/04:00am 12.3 10.1 5.5 63 3.1 ENE 6 9 3 5 1024.6 1024.5 0.0
26/03:30am 13.3 10.6 5.5 59 3.7 E 9 15 5 8 1024.6 1024.5 0.0
26/03:00am 13.8 11.1 5.7 58 3.8 E 9 19 5 10 1024.7 1024.6 0.0
26/02:30am 14.3 11.6 5.7 56 4.1 E 9 17 5 9 1024.6 1024.5 0.0
26/02:00am 14.8 12.1 5.6 54 4.4 E 9 17 5 9 1024.7 1024.6 0.0
26/01:30am 15.1 12.4 5.6 53 4.5 ESE 9 17 5 9 1024.6 1024.5 0.0
26/01:00am 15.5 12.4 5.7 52 4.7 E 11 20 6 11 1024.6 1024.5 0.0
26/12:30am 15.4 12.8 5.9 53 4.6 E 9 19 5 10 1024.6 1024.5 0.0
26/12:00am 15.9 12.9 5.8 51 4.8 E 11 22 6 12 1024.5 1024.4 0.0
 
Date/Time
WST
Tmp

°C
App
Tmp
°C
Dew
Point
°C
Rel
Hum
%
Delta-T

°C
Wind Press
QNH
hPa
Press
MSL
hPa
Rain
since
9 am
mm
Dir
 
Spd
km/h
Gust
km/h
Spd
kts
Gust
kts
25/11:30pm 16.0 13.0 5.9 51 4.9 ESE 11 24 6 13 1024.8 1024.7 0.0
25/11:00pm 16.0 13.0 5.9 51 4.8 E 11 24 6 13 1024.9 1024.8 0.0
25/10:30pm 15.5 13.1 5.4 51 4.8 E 7 13 4 7 1024.9 1024.8 0.0
25/10:00pm 15.6 13.1 4.9 49 5.0 ESE 7 13 4 7 1024.9 1024.8 0.0
25/09:30pm 14.5 12.1 4.5 51 4.6 ENE 6 9 3 5 1024.8 1024.7 0.0
25/09:00pm 14.0 11.8 5.1 55 4.1 ENE 6 9 3 5 1024.7 1024.6 0.0
25/08:30pm 14.1 12.7 5.5 56 4.0 ENE 2 11 1 6 1024.5 1024.4 0.0
25/08:00pm 14.9 13.0 5.1 52 4.6 ENE 4 7 2 4 1024.4 1024.3 0.0
25/07:30pm 16.2 14.0 5.2 48 5.2 ENE 6 9 3 5 1024.1 1024.0 0.0
25/07:00pm 16.8 14.4 4.5 44 5.8 ENE 6 9 3 5 1023.9 1023.8 0.0
25/06:30pm 18.7 16.6 3.7 37 7.1 ENE 4 11 2 6 1023.8 1023.7 0.0
25/06:00pm 19.9 16.8 3.6 34 7.7 E 9 17 5 9 1023.3 1023.2 0.0
25/05:30pm 20.8 17.6 3.1 31 8.4 ENE 9 20 5 11 1023.1 1023.0 0.0
25/05:00pm 21.7 18.4 4.3 32 8.4 E 11 19 6 10 1022.9 1022.8 0.0
25/04:30pm 22.5 19.0 3.6 29 9.1 ENE 11 28 6 15 1022.7 1022.6 0.0
25/04:00pm 22.4 18.5 3.5 29 9.1 E 13 20 7 11 1022.7 1022.6 0.0
25/03:30pm 22.3 18.2 4.4 31 8.8 ENE 15 28 8 15 1022.8 1022.7 0.0
25/03:00pm 22.1 18.4 4.2 31 8.7 ENE 13 22 7 12 1022.8 1022.7 0.0
25/02:30pm 23.2 20.0 5.1 31 9.0 ENE 11 22 6 12 1022.8 1022.7 0.0
25/02:00pm 22.2 18.5 4.7 32 8.6 E 13 22 7 12 1023.0 1022.9 0.0
25/01:30pm 21.8 18.2 4.8 33 8.4 E 13 24 7 13 1023.4 1023.3 0.0
25/01:00pm 20.7 16.4 5.1 36 7.6 ENE 17 33 9 18 1023.9 1023.8 0.0
25/12:30pm 21.0 17.1 5.4 36 7.7 ENE 15 26 8 14 1024.4 1024.3 0.0
25/12:00pm 20.0 16.6 6.0 40 6.9 ENE 13 28 7 15 1025.0 1024.9 0.0
25/11:30am 19.5 15.3 5.9 41 6.7 NE 17 26 9 14 1025.4 1025.3 0.0
25/11:00am 19.0 15.2 5.8 42 6.5 E 15 24 8 13 1025.8 1025.7 0.0
25/10:30am 18.7 15.4 6.2 44 6.2 E 13 28 7 15 1026.3 1026.2 0.0
25/10:00am 17.5 13.8 6.1 47 5.6 ENE 15 28 8 15 1026.7 1026.6 0.0
25/09:30am 17.2 13.7 7.0 51 5.1 ENE 15 28 8 15 1027.0 1026.9 0.0
25/09:00am 16.0 13.2 7.0 55 4.4 ENE 11 20 6 11 1027.2 1027.1 0.0
25/08:30am 15.0 12.2 6.8 58 4.0 E 11 20 6 11 1027.4 1027.3 0.0
25/08:00am 14.2 12.2 7.0 62 3.5 ESE 7 19 4 10 1027.2 1027.1 0.0
25/07:30am 12.5 10.7 7.0 69 2.6 E 6 11 3 6 1026.9 1026.8 0.0
25/07:00am 12.1 10.0 6.8 70 2.5 E 7 15 4 8 1026.4 1026.3 0.0
25/06:30am 12.3 10.2 6.6 68 2.7 E 7 17 4 9 1026.0 1025.9 0.0
25/06:00am 12.6 10.4 6.4 66 2.9 E 7 15 4 8 1025.9 1025.8 0.0
25/05:30am 13.0 10.1 6.4 64 3.1 E 11 19 6 10 1025.8 1025.7 0.0
25/05:00am 12.5 10.4 6.8 68 2.7 E 7 13 4 7 1025.6 1025.5 0.0
25/04:30am 12.8 10.7 6.6 66 3.0 E 7 17 4 9 1025.4 1025.3 0.0
25/04:00am 12.8 10.7 6.6 66 2.9 E 7 15 4 8 1025.2 1025.1 0.0
25/03:30am 13.1 10.6 6.7 65 3.1 ESE 9 19 5 10 1025.2 1025.1 0.0
25/03:00am 13.5 11.1 6.8 64 3.2 E 9 17 5 9 1025.2 1025.1 0.0
25/02:30am 14.0 11.1 6.6 61 3.6 ESE 11 22 6 12 1025.2 1025.1 0.0
25/02:00am 14.1 11.2 6.5 60 3.6 ESE 11 32 6 17 1025.3 1025.2 0.0
25/01:30am 14.5 11.2 6.3 58 3.9 E 13 28 7 15 1025.0 1024.9 0.0
25/01:00am 14.7 11.4 6.5 58 3.9 E 13 26 7 14 1025.1 1025.0 0.0
25/12:30am 14.9 11.7 6.7 58 4.0 ESE 13 32 7 17 1025.2 1025.1 0.0
25/12:00am 15.2 12.3 6.5 56 4.2 E 11 22 6 12 1025.3 1025.2 0.0
 
Date/Time
WST
Tmp

°C
App
Tmp
°C
Dew
Point
°C
Rel
Hum
%
Delta-T

°C
Wind Press
QNH
hPa
Press
MSL
hPa
Rain
since
9 am
mm
Dir
 
Spd
km/h
Gust
km/h
Spd
kts
Gust
kts
24/11:30pm 15.4 12.0 6.1 54 4.5 E 13 30 7 16 1025.4 1025.3 0.0
24/11:00pm 15.6 12.2 5.8 52 4.7 E 13 32 7 17 1025.5 1025.4 0.0
24/10:30pm 15.5 12.5 6.0 53 4.6 ESE 11 20 6 11 1025.9 1025.8 0.0
24/10:00pm 16.1 12.3 6.0 51 4.9 E 15 28 8 15 1026.1 1026.0 0.0
24/09:30pm 16.0 13.0 5.9 51 4.9 E 11 20 6 11 1026.2 1026.1 0.0
24/09:00pm 16.1 13.1 6.0 51 4.9 E 11 22 6 12 1025.9 1025.8 0.0
24/08:30pm 16.4 13.0 6.0 50 5.0 ESE 13 28 7 15 1026.0 1025.9 0.0
24/08:00pm 17.0 13.6 5.9 48 5.4 ESE 13 26 7 14 1026.0 1025.9 0.0
24/07:30pm 17.6 13.7 5.5 45 5.9 ESE 15 28 8 15 1025.9 1025.8 0.0
24/07:00pm 17.6 14.9 5.5 45 5.8 SE 9 17 5 9 1025.7 1025.6 0.0
24/06:30pm 17.5 15.5 6.1 47 5.6 ESE 6 9 3 5 1025.3 1025.2 0.0
24/06:00pm 18.3 15.9 5.2 42 6.3 E 7 13 4 7 1025.3 1025.2 0.0
24/05:30pm 18.7 15.5 5.2 41 6.6 ESE 11 17 6 9 1025.2 1025.1 0.0
24/05:00pm 19.1 15.5 4.8 39 6.9 ESE 13 22 7 12 1025.0 1024.9 0.0
24/04:30pm 19.4 16.3 5.5 40 6.8 ESE 11 20 6 11 1024.7 1024.6 0.0
24/04:00pm 19.6 15.6 4.9 38 7.1 ESE 15 26 8 14 1024.8 1024.7 0.0
24/03:30pm 20.4 17.8 6.0 39 7.2 E 9 22 5 12 1025.1 1025.0 0.0
24/03:00pm 20.5 16.8 4.5 35 7.7 E 13 30 7 16 1025.1 1025.0 0.0
24/02:30pm 21.3 17.9 6.0 37 7.7 ESE 13 26 7 14 1024.9 1024.8 0.0
24/02:00pm 20.4 16.6 5.6 38 7.3 ESE 15 32 8 17 1024.9 1024.8 0.0
24/01:30pm 19.8 15.8 5.1 38 7.2 SE 15 24 8 13 1025.5 1025.4 0.0
24/01:00pm 19.7 16.1 5.0 38 7.1 ESE 13 26 7 14 1026.0 1025.9 0.0
24/12:30pm 19.1 15.3 5.6 41 6.6 ENE 15 28 8 15 1026.3 1026.2 0.0
24/12:00pm 18.9 14.9 5.0 40 6.7 E 15 28 8 15 1026.9 1026.8 0.0
24/11:30am 18.5 14.4 6.0 44 6.2 ESE 17 30 9 16 1027.2 1027.1 0.0
24/11:00am 17.4 13.8 5.0 44 5.9 E 13 32 7 17 1027.6 1027.5 0.0
24/10:30am 17.2 13.4 5.8 47 5.5 E 15 30 8 16 1028.1 1028.0 0.0
24/10:00am 16.5 12.2 5.2 47 5.4 ENE 17 30 9 16 1028.4 1028.3 0.0
24/09:30am 15.5 11.5 5.1 50 4.9 ENE 15 28 8 15 1028.9 1028.8 0.0
24/09:00am 15.0 11.6 5.8 54 4.4 E 13 26 7 14 1029.1 1029.0 0.0
24/08:30am 14.0 10.9 5.4 56 4.0 E 11 22 6 12 1029.3 1029.2 0.0
24/08:00am 12.6 9.8 5.1 60 3.4 ESE 9 19 5 10 1029.1 1029.0 0.0
24/07:30am 12.1 8.4 4.6 60 3.4 E 13 26 7 14 1028.7 1028.6 0.0
24/07:00am 11.5 8.6 4.5 62 3.1 E 9 20 5 11 1028.5 1028.4 0.0
24/06:30am 11.6 8.3 4.3 61 3.3 ESE 11 30 6 16 1028.1 1028.0 0.0
24/06:00am 11.8 8.5 4.8 62 3.2 ESE 11 20 6 11 1027.5 1027.4 0.0
24/05:30am 11.8 8.6 5.0 63 3.1 ESE 11 22 6 12 1027.3 1027.2 0.0
24/05:00am 11.8 8.6 5.2 64 3.0 ESE 11 22 6 12 1027.1 1027.0 0.0
24/04:30am 12.2 9.0 5.1 62 3.3 ESE 11 19 6 10 1026.9 1026.8 0.0
24/04:00am 12.5 9.0 5.4 62 3.3 E 13 20 7 11 1026.8 1026.7 0.0
24/03:30am 12.6 10.0 6.0 64 3.1 ESE 9 22 5 12 1026.7 1026.6 0.0
24/03:00am 13.3 9.4 5.5 59 3.6 SE 15 28 8 15 1026.6 1026.5 0.0
24/02:30am 13.5 10.0 5.4 58 3.8 ESE 13 26 7 14 1026.8 1026.7 0.0
24/02:00am 13.8 10.6 6.9 63 3.3 SE 13 22 7 12 1026.9 1026.8 0.0
24/01:30am 14.3 10.8 7.4 63 3.4 SE 15 28 8 15 1027.0 1026.9 0.0
24/01:00am 14.7 11.8 8.2 65 3.2 ESE 13 26 7 14 1026.9 1026.8 0.0
24/12:30am 15.1 12.2 8.3 64 3.4 ESE 13 24 7 13 1026.7 1026.6 0.0
24/12:00am 15.6 12.4 8.6 63 3.5 ESE 15 32 8 17 1026.6 1026.5 0.0
 
Date/Time
WST
Tmp

°C
App
Tmp
°C
Dew
Point
°C
Rel
Hum
%
Delta-T

°C
Wind Press
QNH
hPa
Press
MSL
hPa
Rain
since
9 am
mm
Dir
 
Spd
km/h
Gust
km/h
Spd
kts
Gust
kts
23/11:30pm 16.1 13.5 9.5 65 3.4 ESE 13 24 7 13 1026.2 1026.1 0.0
23/11:00pm 16.7 13.9 9.9 64 3.6 SE 15 26 8 14 1025.8 1025.7 0.0
23/10:30pm 17.5 15.3 9.4 59 4.2 ESE 11 20 6 11 1025.7 1025.6 0.0
23/10:00pm 18.0 15.5 9.6 58 4.4 ESE 13 24 7 13 1025.4 1025.3 0.0
23/09:30pm 18.5 15.6 9.6 56 4.7 SE 15 28 8 15 1025.2 1025.1 0.0
23/09:00pm 18.8 16.7 9.6 55 4.8 SE 11 22 6 12 1025.0 1024.9 0.0
23/08:30pm 19.0 16.9 9.8 55 4.9 SE 11 19 6 10 1024.8 1024.7 0.0
23/08:00pm 19.4 17.3 9.9 54 5.0 SE 11 19 6 10 1024.5 1024.4 0.0
23/07:30pm 19.7 17.9 9.6 52 5.4 SE 9 15 5 8 1024.2 1024.1 0.0
23/07:00pm 20.4 18.3 9.6 50 5.7 SSE 11 17 6 9 1024.0 1023.9 0.0
23/06:30pm 21.0 18.9 9.9 49 6.0 SE 11 15 6 8 1023.6 1023.5 0.0
23/06:00pm 21.7 19.3 10.2 48 6.2 SE 13 22 7 12 1023.2 1023.1 0.0

Latest Capital City Observations: Canberra | Sydney | Melbourne | Brisbane | Adelaide | Perth | Hobart | Darwin

Other Formats:

Comma delimited format used in spreadsheet applications
http://www.bom.gov.au/fwo/IDW60901/IDW60901.94608.axf

JavaScript Object Notation format (JSON) in row-major order
http://www.bom.gov.au/fwo/IDW60901/IDW60901.94608.json